Time;durP1;ratioP1;P1;durP2;ratioP2;P2;SDS_P1;SDS_P2;PMS_P1;PMS_P2;Temp;Humidity;BMP_temperature;BMP_pressure;BME280_temperature;BME280_humidity;BME280_pressure;Samples;Min_cycle;Max_cycle;Signal;HPM_P1;HPM_P2
2022/02/03 00:00:20;;;;;;;4.10;3.50;;;;;;;-1.31;100.00;97632.25;5083299;28;20237;-52
2022/02/03 00:02:58;;;;;;;2.93;2.73;;;;;;;-1.35;100.00;97632.53;5077811;28;20300;-53
2022/02/03 00:05:36;;;;;;;6.07;3.60;;;;;;;-1.34;100.00;97635.06;5038991;28;20258;-48
2022/02/03 00:08:12;;;;;;;6.10;4.20;;;;;;;-1.40;100.00;97639.81;5079566;28;20308;-51
2022/02/03 00:10:59;;;;;;;6.90;4.37;;;;;;;-1.44;100.00;97633.13;5082056;28;20538;-50
2022/02/03 00:22:13;;;;;;;8.13;4.40;;;;;;;-1.80;100.00;97658.75;5043981;28;20396;-54
2022/02/03 00:25:02;;;;;;;4.70;4.30;;;;;;;-1.84;100.00;97655.47;5080933;28;20228;-54
2022/02/03 00:27:53;;;;;;;8.67;4.40;;;;;;;-1.88;100.00;97661.81;5083424;28;20209;-47
2022/02/03 00:30:32;;;;;;;6.43;5.07;;;;;;;-1.91;100.00;97656.78;5081764;28;20457;-52
2022/02/03 00:36:01;;;;;;;8.90;4.07;;;;;;;-2.05;100.00;97661.09;5052468;28;20206;-56
2022/02/03 00:49:45;;;;;;;4.20;3.80;;;;;;;-1.95;100.00;97671.72;5073404;28;20557;-54
2022/02/03 00:52:14;;;;;;;8.13;4.80;;;;;;;-1.91;100.00;97668.00;5044816;28;21973;-48
2022/02/03 00:54:42;;;;;;;4.93;4.53;;;;;;;-1.93;100.00;97677.66;5082610;28;20610;-56
2022/02/03 00:57:17;;;;;;;11.20;5.17;;;;;;;-1.86;100.00;97669.50;5078663;28;20265;-53
2022/02/03 00:59:54;;;;;;;8.07;4.73;;;;;;;-1.98;100.00;97678.88;5084342;28;20491;-55
2022/02/03 01:02:24;;;;;;;12.93;5.63;;;;;;;-2.04;100.00;97677.47;5079743;28;20267;-51
2022/02/03 01:04:53;;;;;;;9.53;5.47;;;;;;;-2.00;100.00;97678.13;5081042;28;20786;-51
2022/02/03 01:07:22;;;;;;;4.93;4.40;;;;;;;-1.98;100.00;97678.88;5084683;28;20491;-51
2022/02/03 01:10:02;;;;;;;6.70;5.07;;;;;;;-2.01;100.00;97673.88;5034808;28;20294;-55
2022/02/03 01:12:39;;;;;;;8.37;5.40;;;;;;;-2.04;100.00;97678.34;5032837;28;20519;-48
2022/02/03 01:15:19;;;;;;;5.30;4.80;;;;;;;-1.99;100.00;97685.81;5074305;28;20502;-51
2022/02/03 01:17:56;;;;;;;6.70;4.37;;;;;;;-1.95;100.00;97676.91;5082573;28;20233;-54
2022/02/03 01:20:55;;;;;;;5.37;4.87;;;;;;;-1.86;100.00;97687.69;5079034;28;20210;-51
2022/02/03 01:34:43;;;;;;;6.80;4.70;;;;;;;-1.49;100.00;97664.63;5087514;28;20564;-52
2022/02/03 01:45:50;;;;;;;9.77;5.17;;;;;;;-1.21;100.00;97666.31;5082307;28;20709;-49
2022/02/03 01:48:33;;;;;;;7.03;5.37;;;;;;;-1.19;100.00;97663.59;5085268;28;20282;-48
2022/02/03 01:53:50;;;;;;;7.63;5.33;;;;;;;-1.09;100.00;97664.69;5080268;28;20222;-54
2022/02/03 01:56:20;;;;;;;11.43;5.03;;;;;;;-1.11;100.00;97650.13;5065743;28;20263;-52
2022/02/03 01:58:51;;;;;;;9.63;5.07;;;;;;;-1.01;100.00;97658.97;5035393;28;20265;-53
2022/02/03 02:01:25;;;;;;;7.63;5.33;;;;;;;-0.99;100.00;97658.91;5082656;28;20238;-49
2022/02/03 02:04:04;;;;;;;10.13;5.80;;;;;;;-1.04;100.00;97646.19;5081041;28;20822;-48
2022/02/03 02:07:08;;;;;;;6.13;5.03;;;;;;;-0.92;100.00;97653.22;5085435;28;20456;-48
2022/02/03 02:09:51;;;;;;;9.03;5.70;;;;;;;-0.90;100.00;97646.13;5083193;28;20251;-55
2022/02/03 02:12:35;;;;;;;4.90;4.40;;;;;;;-1.02;100.00;97634.75;5065377;28;20294;-51
2022/02/03 02:38:10;;;;;;;7.13;4.60;;;;;;;-1.06;100.00;97617.69;4943653;28;20236;-53
2022/02/03 02:43:33;;;;;;;7.97;4.93;;;;;;;-0.93;100.00;97628.13;4923679;28;20427;-50
2022/02/03 02:46:04;;;;;;;6.13;4.20;;;;;;;-0.85;100.00;97634.59;4903038;28;20309;-52
2022/02/03 02:48:46;;;;;;;5.97;4.67;;;;;;;-0.83;100.00;97632.72;4944236;28;20207;-52
2022/02/03 02:51:21;;;;;;;8.23;4.53;;;;;;;-0.51;100.00;97638.38;4946515;28;20206;-50
2022/02/03 02:54:10;;;;;;;11.23;4.70;;;;;;;-0.52;100.00;97628.06;4944494;28;20692;-50
2022/02/03 02:56:53;;;;;;;7.57;4.97;;;;;;;-0.62;100.00;97620.03;4925476;28;20836;-56
2022/02/03 02:59:43;;;;;;;10.57;4.70;;;;;;;-0.58;100.00;97613.69;4969692;28;20200;-51
2022/02/03 03:02:42;;;;;;;7.70;4.97;;;;;;;-0.39;100.00;97615.03;4960650;28;20487;-52
2022/02/03 03:30:19;;;;;;;6.63;4.43;;;;;;;-0.60;100.00;97615.56;5079996;28;20220;-47
2022/02/03 03:33:03;;;;;;;7.63;4.57;;;;;;;-0.64;100.00;97599.31;5078174;28;20193;-52
2022/02/03 03:35:39;;;;;;;5.37;4.70;;;;;;;-0.57;100.00;97598.91;5030565;28;20225;-51
2022/02/03 03:38:09;;;;;;;6.50;4.00;;;;;;;-0.43;100.00;97596.22;5079175;28;20629;-48
2022/02/03 03:40:42;;;;;;;7.00;4.63;;;;;;;-0.55;100.00;97599.66;5073837;28;20213;-50
2022/02/03 03:43:14;;;;;;;8.07;5.50;;;;;;;-0.68;100.00;97600.47;5081414;28;20321;-46
2022/02/03 03:45:47;;;;;;;8.73;4.50;;;;;;;-0.70;100.00;97597.13;5060481;28;20206;-51
2022/02/03 03:48:18;;;;;;;7.40;5.20;;;;;;;-0.63;100.00;97593.16;5077995;28;20202;-49
2022/02/03 03:50:49;;;;;;;4.23;3.90;;;;;;;-0.44;100.00;97597.97;5031248;28;20205;-50
2022/02/03 03:53:26;;;;;;;5.63;4.57;;;;;;;-0.43;100.00;97601.41;5075341;28;20201;-51
2022/02/03 03:56:07;;;;;;;9.93;5.23;;;;;;;-0.59;100.00;97597.22;5078285;28;20202;-52
2022/02/03 03:59:08;;;;;;;8.20;4.70;;;;;;;-0.67;100.00;97602.13;5079006;28;20226;-50
2022/02/03 04:31:11;;;;;;;5.43;4.93;;;;;;;-0.28;100.00;97596.09;5041662;28;20199;-51
2022/02/03 04:34:05;;;;;;;7.37;5.37;;;;;;;-0.23;100.00;97597.44;5012990;28;20219;-54
2022/02/03 04:45:50;;;;;;;9.57;5.57;;;;;;;-0.17;100.00;97589.19;5019872;28;20462;-50
2022/02/03 04:57:23;;;;;;;13.03;6.40;;;;;;;-0.08;100.00;97579.91;4957245;28;20207;-47
2022/02/03 05:00:30;;;;;;;15.77;7.30;;;;;;;-0.21;100.00;97577.34;5017771;28;20261;-51
2022/02/03 05:03:39;;;;;;;9.87;6.53;;;;;;;-0.15;100.00;97573.47;4998314;28;20425;-47
2022/02/03 05:06:21;;;;;;;10.37;6.03;;;;;;;-0.23;100.00;97578.38;5024397;28;20229;-52
2022/02/03 05:09:06;;;;;;;11.93;5.87;;;;;;;-0.38;100.00;97565.47;4973749;28;20216;-49
2022/02/03 05:12:17;;;;;;;13.20;6.23;;;;;;;-0.26;100.00;97579.44;5025536;28;20223;-51
2022/02/03 05:21:43;;;;;;;8.73;7.30;;;;;;;-0.22;100.00;97564.41;4925764;28;20202;-50
2022/02/03 05:33:43;;;;;;;8.03;6.33;;;;;;;-0.30;100.00;97557.97;4996525;28;20467;-55
2022/02/03 05:42:41;;;;;;;7.90;6.23;;;;;;;-0.09;100.00;97547.00;4957011;28;20208;-54
2022/02/03 05:48:18;;;;;;;13.13;7.40;;;;;;;0.09;100.00;97546.63;5001899;28;20292;-50
2022/02/03 06:05:09;;;;;;;11.10;7.03;;;;;;;-0.02;100.00;97534.34;5016639;28;20560;-51
2022/02/03 06:13:12;;;;;;;11.83;7.30;;;;;;;0.14;100.00;97526.28;4977441;28;20222;-52
2022/02/03 06:15:48;;;;;;;12.60;7.50;;;;;;;0.09;100.00;97531.00;4994470;28;20424;-51
2022/02/03 06:24:02;;;;;;;12.70;8.03;;;;;;;0.04;100.00;97533.09;5022326;28;20724;-49
2022/02/03 06:29:21;;;;;;;13.83;8.37;;;;;;;0.14;100.00;97537.56;4981896;28;20215;-52
2022/02/03 06:31:51;;;;;;;12.80;9.13;;;;;;;0.22;100.00;97539.63;5024422;28;20261;-54
2022/02/03 06:34:21;;;;;;;16.13;9.33;;;;;;;0.21;100.00;97522.31;5024934;28;20227;-48
2022/02/03 06:36:51;;;;;;;10.57;7.73;;;;;;;0.26;100.00;97532.38;5063789;28;20296;-52
2022/02/03 06:39:20;;;;;;;11.30;8.77;;;;;;;0.29;100.00;97529.56;5078907;28;20290;-53
2022/02/03 06:41:50;;;;;;;18.50;10.10;;;;;;;0.44;100.00;97530.22;5065324;28;20208;-50
2022/02/03 06:44:19;;;;;;;20.60;11.07;;;;;;;0.21;100.00;97516.25;5055778;28;20233;-52
2022/02/03 06:46:51;;;;;;;13.77;9.10;;;;;;;0.25;100.00;97534.19;5073230;28;20325;-49
2022/02/03 06:49:30;;;;;;;17.50;9.60;;;;;;;0.38;100.00;97533.28;5080008;28;20539;-51
2022/02/03 06:52:02;;;;;;;13.10;9.43;;;;;;;0.49;100.00;97524.69;5083377;28;20202;-52
2022/02/03 06:54:38;;;;;;;12.50;9.30;;;;;;;0.51;100.00;97526.22;5076118;28;20434;-53
2022/02/03 06:57:12;;;;;;;19.67;10.80;;;;;;;0.59;100.00;97522.25;5065220;28;20216;-49
2022/02/03 06:59:48;;;;;;;15.93;12.30;;;;;;;0.67;100.00;97525.13;5080570;28;20979;-46
2022/02/03 07:02:17;;;;;;;20.53;11.37;;;;;;;0.72;100.00;97521.22;5037201;28;20210;-51
2022/02/03 07:04:46;;;;;;;15.37;9.83;;;;;;;0.64;100.00;97522.75;5084006;28;20910;-52
2022/02/03 07:07:17;;;;;;;13.80;10.67;;;;;;;0.82;100.00;97512.72;5082943;28;20205;-52
2022/02/03 07:09:49;;;;;;;19.57;10.57;;;;;;;0.84;100.00;97509.03;5080414;28;20320;-53
2022/02/03 07:12:18;;;;;;;14.30;10.23;;;;;;;0.86;100.00;97495.88;5063547;28;20202;-54
2022/02/03 07:14:46;;;;;;;16.67;10.23;;;;;;;0.92;100.00;97505.84;5081754;28;20244;-50
2022/02/03 07:17:14;;;;;;;12.97;9.90;;;;;;;0.91;100.00;97512.03;5037904;28;20213;-53
2022/02/03 07:19:46;;;;;;;19.83;9.93;;;;;;;0.80;100.00;97497.16;5081079;28;20692;-47
2022/02/03 07:22:17;;;;;;;12.73;9.50;;;;;;;0.96;100.00;97504.69;5081612;28;20272;-52
2022/02/03 07:24:51;;;;;;;18.07;9.93;;;;;;;1.10;100.00;97503.63;5081503;28;20222;-54
2022/02/03 07:27:20;;;;;;;16.87;9.80;;;;;;;1.15;100.00;97492.88;5061690;28;20305;-50
2022/02/03 07:29:48;;;;;;;18.60;10.93;;;;;;;1.18;100.00;97499.63;5080979;28;20202;-48
2022/02/03 07:32:16;;;;;;;14.73;10.43;;;;;;;1.17;100.00;97484.91;5036195;28;20686;-49
2022/02/03 07:34:44;;;;;;;14.77;10.20;;;;;;;1.26;100.00;97505.06;5030734;28;20221;-53
2022/02/03 07:37:12;;;;;;;14.33;10.20;;;;;;;1.29;100.00;97508.28;5077462;28;20586;-53
2022/02/03 07:39:42;;;;;;;15.03;10.37;;;;;;;1.26;100.00;97505.91;5079235;28;20677;-51
2022/02/03 07:42:10;;;;;;;17.27;10.63;;;;;;;1.32;100.00;97511.63;5064551;28;20209;-50
2022/02/03 07:44:38;;;;;;;16.57;10.07;;;;;;;1.46;100.00;97506.16;5078699;28;20230;-51
2022/02/03 07:47:06;;;;;;;16.57;10.00;;;;;;;1.35;100.00;97495.72;5081210;28;20418;-47
2022/02/03 07:49:35;;;;;;;14.40;9.17;;;;;;;1.44;100.00;97501.06;5036388;28;20218;-50
2022/02/03 07:52:03;;;;;;;21.20;10.87;;;;;;;1.53;100.00;97501.28;5081865;28;20201;-52
2022/02/03 07:54:32;;;;;;;17.80;10.67;;;;;;;1.30;100.00;97502.13;5079791;28;20765;-54
2022/02/03 07:57:02;;;;;;;15.50;10.83;;;;;;;1.30;100.00;97493.44;5062618;28;20618;-53
2022/02/03 07:59:30;;;;;;;16.27;11.43;;;;;;;1.18;100.00;97482.19;5079845;28;20225;-52
2022/02/03 08:01:58;;;;;;;14.23;9.13;;;;;;;1.19;100.00;97477.78;5078954;28;20306;-55
2022/02/03 08:04:30;;;;;;;18.77;11.07;;;;;;;1.18;100.00;97479.56;5080508;28;20733;-50
2022/02/03 08:06:58;;;;;;;14.27;10.53;;;;;;;1.26;100.00;97471.97;5039512;28;20450;-51
2022/02/03 08:09:31;;;;;;;22.43;9.87;;;;;;;1.32;100.00;97467.22;5083807;28;20232;-54
2022/02/03 08:12:02;;;;;;;22.03;10.70;;;;;;;1.37;100.00;97468.53;5059369;28;20210;-50
2022/02/03 08:14:37;;;;;;;17.63;10.93;;;;;;;1.58;100.00;97463.44;5081632;28;20221;-49
2022/02/03 08:17:08;;;;;;;16.37;11.10;;;;;;;1.70;100.00;97469.44;5078322;28;20220;-55
2022/02/03 08:19:44;;;;;;;16.10;11.30;;;;;;;1.57;100.00;97450.47;5065060;28;20689;-53
2022/02/03 08:22:16;;;;;;;14.47;10.70;;;;;;;1.76;100.00;97467.31;5073029;28;20221;-53
2022/02/03 08:24:48;;;;;;;14.40;10.20;;;;;;;1.67;100.00;97469.69;5079110;28;20877;-52
2022/02/03 08:30:35;;;;;;;18.27;10.80;;;;;;;1.75;100.00;97463.06;5037556;28;20764;-50
2022/02/03 08:33:05;;;;;;;18.10;9.13;;;;;;;1.73;100.00;97471.00;5034049;28;20207;-53
2022/02/03 08:35:39;;;;;;;15.00;11.00;;;;;;;1.56;100.00;97472.31;5034448;28;20220;-54
2022/02/03 08:38:17;;;;;;;15.83;10.83;;;;;;;1.64;100.00;97461.28;5020832;28;20572;-55
2022/02/03 08:40:58;;;;;;;15.13;8.70;;;;;;;1.70;100.00;97464.22;5013319;28;20216;-49
2022/02/03 08:43:28;;;;;;;14.63;10.97;;;;;;;1.68;100.00;97473.97;5025037;28;20239;-51
2022/02/03 08:45:58;;;;;;;16.93;10.27;;;;;;;1.80;100.00;97472.16;5037073;28;20513;-52
2022/02/03 08:48:27;;;;;;;13.80;10.27;;;;;;;1.88;100.00;97467.16;5041730;28;20209;-49
2022/02/03 08:50:59;;;;;;;11.03;9.70;;;;;;;2.01;100.00;97463.59;5043126;28;20200;-52
2022/02/03 08:53:31;;;;;;;16.60;8.93;;;;;;;1.96;100.00;97458.72;4995984;28;20584;-54
2022/02/03 08:56:09;;;;;;;11.43;9.27;;;;;;;1.80;100.00;97459.09;5042335;28;20880;-52
2022/02/03 09:34:58;;;;;;;16.03;10.27;;;;;;;2.17;100.00;97431.81;5080743;28;20233;-52
2022/02/03 09:37:48;;;;;;;16.93;10.03;;;;;;;2.42;100.00;97441.09;5083352;28;20534;-56
2022/02/03 09:59:59;;;;;;;15.07;10.13;;;;;;;2.83;100.00;97420.28;5065150;28;20233;-51
2022/02/03 10:02:30;;;;;;;15.30;10.90;;;;;;;2.97;100.00;97419.13;5084271;28;20204;-50
2022/02/03 10:05:11;;;;;;;16.10;9.90;;;;;;;3.00;100.00;97405.75;5068717;28;20316;-53
2022/02/03 10:07:40;;;;;;;12.93;10.83;;;;;;;2.95;100.00;97402.72;5082947;28;20210;-52
2022/02/03 10:10:13;;;;;;;11.90;10.23;;;;;;;3.10;100.00;97397.97;5079770;28;20827;-51
2022/02/03 10:12:42;;;;;;;17.33;10.60;;;;;;;3.25;100.00;97392.38;5039220;28;20292;-52
2022/02/03 10:15:12;;;;;;;15.37;11.20;;;;;;;3.25;100.00;97395.00;5077551;28;20210;-53
2022/02/03 10:17:43;;;;;;;14.37;10.63;;;;;;;3.26;100.00;97370.47;5083138;28;20584;-53
2022/02/03 10:20:14;;;;;;;15.33;11.30;;;;;;;3.57;100.00;97371.22;5079125;28;20296;-52
2022/02/03 10:22:48;;;;;;;16.77;11.67;;;;;;;3.58;100.00;97365.03;5064763;28;20232;-50
2022/02/03 10:25:22;;;;;;;13.17;10.20;;;;;;;3.59;100.00;97366.69;5081546;28;20235;-55
2022/02/03 10:27:58;;;;;;;16.10;11.17;;;;;;;3.83;100.00;97367.25;5033992;27;20620;-51
2022/02/03 10:30:28;;;;;;;13.70;10.67;;;;;;;3.88;100.00;97371.13;5080015;28;20202;-51
2022/02/03 10:32:56;;;;;;;14.00;10.17;;;;;;;3.91;100.00;97362.16;5077499;28;20720;-55
2022/02/03 10:35:31;;;;;;;12.70;10.73;;;;;;;4.02;100.00;97376.94;5084147;28;20222;-52
2022/02/03 10:38:19;;;;;;;13.60;10.23;;;;;;;4.20;100.00;97375.28;5063941;28;21178;-52
2022/02/03 10:41:10;;;;;;;16.57;11.03;;;;;;;4.44;100.00;97362.69;5081291;28;20205;-48
2022/02/03 10:46:54;;;;;;;16.43;10.43;;;;;;;4.22;100.00;97358.59;5043753;28;20221;-48
2022/02/03 10:52:56;;;;;;;11.60;10.23;;;;;;;4.08;100.00;97346.72;5067193;28;20202;-54
2022/02/03 11:01:35;;;;;;;12.30;9.97;;;;;;;4.05;100.00;97329.44;5023485;28;20226;-51
2022/02/03 11:07:07;;;;;;;17.00;11.43;;;;;;;4.30;100.00;97320.16;5077670;27;20724;-53
2022/02/03 11:09:57;;;;;;;15.17;11.10;;;;;;;4.02;100.00;97321.88;5067127;28;20205;-55
2022/02/03 11:12:47;;;;;;;13.23;11.83;;;;;;;4.18;100.00;97324.78;5080146;28;20213;-51
2022/02/03 11:15:16;;;;;;;17.87;9.30;;;;;;;4.05;100.00;97317.19;5029633;28;20229;-52
2022/02/03 11:17:45;;;;;;;15.20;12.37;;;;;;;4.03;100.00;97310.41;5070915;28;20608;-49
2022/02/03 11:20:14;;;;;;;17.57;11.10;;;;;;;4.05;100.00;97311.09;5070048;28;20194;-51
2022/02/03 11:22:50;;;;;;;12.47;11.07;;;;;;;3.78;100.00;97309.19;5062172;28;20202;-57
2022/02/03 11:25:30;;;;;;;16.17;10.40;;;;;;;3.75;100.00;97294.53;5069062;28;20591;-54
2022/02/03 11:28:28;;;;;;;15.83;10.30;;;;;;;3.78;100.00;97298.69;5063888;28;20237;-50
2022/02/03 11:31:21;;;;;;;13.10;10.70;;;;;;;3.76;100.00;97301.44;5016601;28;20213;-52
2022/02/03 11:34:16;;;;;;;16.27;12.53;;;;;;;3.85;100.00;97303.25;5067031;28;20603;-50
2022/02/03 11:40:20;;;;;;;18.67;11.20;;;;;;;4.02;100.00;97301.72;4951158;28;20225;-53
2022/02/03 11:48:54;;;;;;;15.27;11.87;;;;;;;4.02;100.00;97283.38;4916010;28;21682;-52
2022/02/03 12:03:09;;;;;;;14.53;11.03;;;;;;;4.14;100.00;97259.63;5076469;28;20202;-54
2022/02/03 12:11:47;;;;;;;15.63;12.63;;;;;;;4.06;100.00;97241.97;5015905;28;20346;-53
2022/02/03 12:14:40;;;;;;;16.73;11.33;;;;;;;4.23;100.00;97244.84;5014335;28;20345;-51
2022/02/03 12:20:11;;;;;;;19.63;13.07;;;;;;;4.07;100.00;97248.03;4967531;28;20246;-48
2022/02/03 12:25:41;;;;;;;18.13;12.73;;;;;;;3.98;100.00;97228.72;5015836;28;20414;-51
2022/02/03 12:28:28;;;;;;;15.93;12.27;;;;;;;4.11;100.00;97220.56;5013420;28;20707;-51
2022/02/03 12:39:34;;;;;;;16.80;12.43;;;;;;;4.19;100.00;97165.59;5015874;28;20943;-54
2022/02/03 12:42:06;;;;;;;17.97;13.23;;;;;;;4.12;100.00;97180.25;5015264;28;20211;-50
2022/02/03 12:44:38;;;;;;;14.90;10.77;;;;;;;4.14;100.00;97199.31;5014385;28;20228;-50
2022/02/03 12:47:08;;;;;;;15.83;11.40;;;;;;;4.17;100.00;97191.97;5045392;28;20205;-53
2022/02/03 12:49:39;;;;;;;14.93;11.37;;;;;;;4.13;100.00;97179.28;5081021;28;20209;-52
2022/02/03 12:52:28;;;;;;;16.20;11.73;;;;;;;4.31;100.00;97172.31;5032023;27;20220;-53
2022/02/03 12:54:56;;;;;;;13.60;11.00;;;;;;;4.36;100.00;97143.03;5083443;28;20720;-51
2022/02/03 12:57:33;;;;;;;16.70;12.20;;;;;;;4.51;100.00;97147.78;5077355;28;20248;-51
2022/02/03 13:00:17;;;;;;;15.20;11.73;;;;;;;4.58;100.00;97141.81;5077862;28;20300;-50
2022/02/03 13:03:10;;;;;;;13.67;12.13;;;;;;;4.41;100.00;97130.28;5081979;28;20205;-52
2022/02/03 13:05:40;;;;;;;18.10;12.17;;;;;;;4.34;100.00;97132.66;5081542;28;20225;-50
2022/02/03 13:08:11;;;;;;;14.47;11.13;;;;;;;4.35;100.00;97129.06;5022898;28;20218;-52
2022/02/03 13:10:40;;;;;;;13.23;11.07;;;;;;;4.27;100.00;97131.59;5070174;28;20693;-55
2022/02/03 13:13:17;;;;;;;13.67;11.47;;;;;;;4.42;100.00;97129.31;5067090;28;20199;-53
2022/02/03 13:15:45;;;;;;;13.23;11.20;;;;;;;4.48;100.00;97125.28;5067931;28;20212;-52
2022/02/03 13:18:21;;;;;;;13.73;11.00;;;;;;;4.49;100.00;97126.94;5064598;28;20221;-47
2022/02/03 13:20:59;;;;;;;14.13;11.57;;;;;;;4.58;100.00;97126.06;5063922;28;20878;-51
2022/02/03 13:23:29;;;;;;;13.80;11.23;;;;;;;4.77;100.00;97113.78;5053909;28;20390;-51
2022/02/03 13:26:08;;;;;;;14.83;11.13;;;;;;;4.87;100.00;97109.28;5067314;28;20198;-51
2022/02/03 13:28:39;;;;;;;17.17;11.13;;;;;;;5.13;100.00;97112.97;5070320;28;20202;-55
2022/02/03 13:31:21;;;;;;;12.30;9.97;;;;;;;5.30;100.00;97111.28;5063184;28;20211;-52
2022/02/03 13:34:03;;;;;;;15.87;11.03;;;;;;;5.31;100.00;97105.91;5063962;28;20316;-53
2022/02/03 13:36:34;;;;;;;12.60;10.93;;;;;;;5.45;100.00;97091.38;5025745;28;20228;-54
2022/02/03 13:39:08;;;;;;;13.80;10.60;;;;;;;5.59;100.00;97084.72;5065429;28;20566;-52
2022/02/03 13:41:40;;;;;;;16.40;11.80;;;;;;;5.55;100.00;97087.84;5068443;28;20210;-53
2022/02/03 13:44:09;;;;;;;12.10;10.80;;;;;;;5.77;100.00;97083.84;5063374;28;20222;-51
2022/02/03 13:46:38;;;;;;;13.77;10.80;;;;;;;6.05;100.00;97071.34;5065560;28;20203;-51
2022/02/03 13:49:16;;;;;;;18.47;10.50;;;;;;;6.03;100.00;97073.31;5066562;28;20358;-52
2022/02/03 13:51:46;;;;;;;13.80;10.33;;;;;;;6.20;100.00;97055.81;5064371;28;20226;-49
2022/02/03 13:54:40;;;;;;;14.33;10.33;;;;;;;6.26;100.00;97043.81;5017922;28;20311;-56
2022/02/03 14:20:07;;;;;;;11.13;9.97;;;;;;;5.57;100.00;97009.66;5045209;28;20207;-51
2022/02/03 14:23:20;;;;;;;11.87;9.97;;;;;;;5.62;100.00;96987.16;5046466;28;20307;-52
2022/02/03 14:28:32;;;;;;;11.23;10.03;;;;;;;5.26;100.00;96991.75;5062784;28;20286;-52
2022/02/03 14:31:04;;;;;;;11.50;10.33;;;;;;;5.31;100.00;96982.44;5067174;28;20596;-50
2022/02/03 14:33:35;;;;;;;10.23;9.33;;;;;;;5.19;100.00;96997.63;5054648;28;20690;-54
2022/02/03 14:36:07;;;;;;;12.47;9.97;;;;;;;5.16;100.00;96991.84;5066030;28;20202;-55
2022/02/03 14:38:45;;;;;;;11.37;10.17;;;;;;;5.34;100.00;96991.78;5044973;28;20303;-53
2022/02/03 14:41:21;;;;;;;11.50;9.77;;;;;;;5.28;100.00;96995.03;5021361;28;20296;-51
2022/02/03 14:43:49;;;;;;;11.93;10.00;;;;;;;5.07;100.00;97001.44;5065968;28;20214;-52
2022/02/03 14:46:28;;;;;;;11.07;10.00;;;;;;;5.12;100.00;96996.59;5062909;28;20292;-48
2022/02/03 14:48:56;;;;;;;14.53;11.63;;;;;;;4.97;100.00;97000.72;5050110;28;20209;-51
2022/02/03 14:51:28;;;;;;;11.33;9.57;;;;;;;4.79;100.00;96996.34;5063634;28;20198;-49
2022/02/03 14:57:59;;;;;;;13.00;9.97;;;;;;;4.81;100.00;96985.69;5049259;28;20228;-55
2022/02/03 14:59:29;;;;;;;10.13;9.10;;;;;;;4.80;100.00;96978.78;5064018;28;20404;-52
2022/02/03 15:01:57;;;;;;;10.90;9.80;;;;;;;4.89;100.00;96975.22;5065420;28;20203;-54
2022/02/03 15:04:28;;;;;;;10.53;9.47;;;;;;;4.80;100.00;96966.50;5049730;28;20230;-49
2022/02/03 15:07:01;;;;;;;17.17;11.00;;;;;;;4.74;100.00;96965.28;5063975;28;20685;-53
2022/02/03 15:12:41;;;;;;;10.67;9.67;;;;;;;4.60;100.00;96971.91;5019415;27;21153;-58
2022/02/03 15:15:10;;;;;;;11.53;10.43;;;;;;;4.57;100.00;96985.31;5047535;28;20329;-48
2022/02/03 15:17:37;;;;;;;10.90;9.80;;;;;;;4.47;100.00;96981.97;5026561;28;20889;-51
2022/02/03 15:20:07;;;;;;;10.70;9.53;;;;;;;4.48;100.00;96987.03;5033147;28;20214;-51
2022/02/03 15:22:35;;;;;;;11.77;9.37;;;;;;;4.35;100.00;96976.91;5037962;28;20196;-53
2022/02/03 15:25:04;;;;;;;10.50;9.40;;;;;;;4.25;100.00;96970.94;5030619;28;20329;-56
2022/02/03 15:27:34;;;;;;;11.20;10.03;;;;;;;4.25;100.00;96972.75;5006799;28;20681;-50
2022/02/03 15:30:03;;;;;;;13.23;10.23;;;;;;;4.05;100.00;96965.84;5045365;28;20206;-53
2022/02/03 15:32:37;;;;;;;12.30;9.37;;;;;;;4.10;100.00;96965.38;5040273;28;20788;-55
2022/02/03 15:35:08;;;;;;;12.13;10.30;;;;;;;4.13;100.00;96966.88;5029317;28;20225;-47
2022/02/03 15:37:36;;;;;;;13.83;9.70;;;;;;;4.06;100.00;96961.41;5043189;28;20214;-56
2022/02/03 15:40:11;;;;;;;12.20;10.63;;;;;;;3.93;100.00;96960.94;5043142;28;20293;-50
2022/02/03 15:42:50;;;;;;;11.17;9.97;;;;;;;3.99;100.00;96966.44;5012308;28;20194;-55
2022/02/03 15:45:18;;;;;;;10.60;9.40;;;;;;;3.84;100.00;96960.88;4999933;28;20682;-55
2022/02/03 15:47:50;;;;;;;12.50;11.03;;;;;;;3.80;100.00;96959.50;5019843;28;20210;-54
2022/02/03 15:50:56;;;;;;;13.07;10.33;;;;;;;3.83;100.00;96961.00;5025217;28;20217;-52
2022/02/03 15:56:25;;;;;;;12.73;10.40;;;;;;;3.52;100.00;96954.25;5003442;28;20722;-49
2022/02/03 16:13:34;;;;;;;12.47;11.27;;;;;;;3.32;100.00;96933.38;4905349;29;20208;-55
2022/02/03 16:19:02;;;;;;;15.80;11.27;;;;;;;3.50;100.00;96921.31;4861296;29;20777;-56
2022/02/03 16:21:36;;;;;;;12.03;10.63;;;;;;;3.50;100.00;96913.44;4903957;29;20214;-50
2022/02/03 16:41:10;;;;;;;13.67;11.90;;;;;;;3.12;100.00;96871.59;4854243;29;20228;-54
2022/02/03 16:52:09;;;;;;;17.43;12.43;;;;;;;2.80;100.00;96859.75;5024544;28;20229;-55
2022/02/03 16:54:37;;;;;;;19.20;16.53;;;;;;;2.74;100.00;96859.34;5031786;28;20964;-52
2022/02/03 16:57:12;;;;;;;16.20;13.83;;;;;;;2.83;100.00;96843.75;5013722;28;20323;-48
2022/02/03 16:59:49;;;;;;;17.07;11.63;;;;;;;2.80;100.00;96851.88;5027862;28;20606;-51
2022/02/03 17:02:17;;;;;;;14.70;11.33;;;;;;;2.66;100.00;96863.63;5031387;28;20226;-50
2022/02/03 17:04:52;;;;;;;15.43;12.07;;;;;;;2.56;100.00;96869.72;4995584;28;20223;-50
2022/02/03 17:07:20;;;;;;;12.60;11.33;;;;;;;2.62;100.00;96870.13;5026964;28;20203;-50
2022/02/03 17:09:49;;;;;;;13.93;10.57;;;;;;;2.60;100.00;96876.31;5008435;28;20704;-52
2022/02/03 17:12:19;;;;;;;15.93;11.47;;;;;;;2.54;100.00;96884.72;5012605;28;20228;-53
2022/02/03 17:14:47;;;;;;;12.97;11.27;;;;;;;2.52;100.00;96865.75;5011526;28;20727;-51
2022/02/03 17:17:19;;;;;;;12.37;10.43;;;;;;;2.59;100.00;96869.44;5024187;28;20333;-50
2022/02/03 17:19:47;;;;;;;16.10;12.30;;;;;;;2.69;100.00;96869.41;5026169;28;20215;-56
2022/02/03 17:22:20;;;;;;;16.60;12.37;;;;;;;2.60;100.00;96880.72;4966142;28;20584;-49
2022/02/03 17:24:59;;;;;;;15.00;12.30;;;;;;;2.61;100.00;96900.66;5027699;28;20839;-53
2022/02/03 17:27:37;;;;;;;13.90;11.33;;;;;;;2.57;100.00;96921.06;5011963;28;20274;-47
2022/02/03 17:30:11;;;;;;;15.33;11.13;;;;;;;2.41;100.00;96915.56;5020550;28;20405;-45
2022/02/03 17:52:37;;;;;;;12.93;11.57;;;;;;;2.18;100.00;96858.34;4889950;28;20269;-50
2022/02/03 18:03:46;;;;;;;24.97;15.90;;;;;;;2.12;100.00;96862.34;4933340;28;20509;-46
2022/02/03 18:09:20;;;;;;;16.00;14.40;;;;;;;2.23;100.00;96847.47;4908081;28;22263;-50
2022/02/03 18:17:07;;;;;;;17.60;13.20;;;;;;;2.22;100.00;96812.66;4888120;28;20459;-53
2022/02/03 18:17:44;;;;;;;20.60;14.30;;;;;;;2.13;100.00;96853.53;4884650;28;20211;-49
2022/02/03 18:25:57;;;;;;;21.00;17.45;;;;;;;1.94;100.00;96856.16;4980942;28;22075;-48
2022/02/03 18:31:35;;;;;;;15.20;12.77;;;;;;;1.97;100.00;96863.72;5010398;28;20702;-54
2022/02/03 18:34:37;;;;;;;15.87;13.90;;;;;;;1.81;100.00;96861.66;5012324;28;20227;-48
2022/02/03 18:37:18;;;;;;;15.23;11.87;;;;;;;1.82;100.00;96839.81;5029381;28;20208;-49
2022/02/03 18:46:27;;;;;;;21.00;15.87;;;;;;;1.88;100.00;96860.16;4959351;28;20225;-53
2022/02/03 18:51:38;;;;;;;33.50;25.02;;;;;;;1.78;100.00;96877.63;4956149;28;20538;-55
2022/02/03 18:54:16;;;;;;;23.57;18.57;;;;;;;1.81;100.00;96869.50;4958097;28;21042;-52
2022/02/03 18:56:52;;;;;;;31.60;20.73;;;;;;;1.69;100.00;96864.38;4918411;28;20780;-49
2022/02/03 18:59:45;;;;;;;24.53;18.17;;;;;;;1.59;100.00;96848.72;4957422;28;20220;-52
2022/02/03 19:24:51;;;;;;;24.33;18.50;;;;;;;1.72;100.00;96834.56;5027038;28;20414;-48
2022/02/03 20:04:02;;;;;;;16.07;11.87;;;;;;;1.43;100.00;96819.69;4912037;29;20310;-54
2022/02/03 20:06:45;;;;;;;20.10;14.13;;;;;;;1.39;100.00;96815.69;4903830;28;20877;-55
2022/02/03 20:09:23;;;;;;;22.17;18.08;;;;;;;1.34;100.00;96817.91;4907669;28;20510;-46
2022/02/03 20:11:51;;;;;;;16.37;14.17;;;;;;;1.34;100.00;96800.47;4986778;28;20323;-51
2022/02/03 20:14:20;;;;;;;14.40;12.90;;;;;;;1.23;100.00;96795.34;4940791;28;21086;-47
2022/02/03 20:16:48;;;;;;;13.30;11.90;;;;;;;1.19;100.00;96781.75;4943401;28;20784;-51
2022/02/03 20:19:17;;;;;;;14.83;13.17;;;;;;;1.43;100.00;96798.81;4964931;28;20249;-55